sensor_id;sensor_type;location;lat;lon;timestamp;P1;durP1;ratioP1;P2;durP2;ratioP2
13085;SDS011;6609;49.882;8.664;2023-04-16T00:00:29;10.93;;;5.90;;
13085;SDS011;6609;49.882;8.664;2023-04-16T00:02:56;10.63;;;5.83;;
13085;SDS011;6609;49.882;8.664;2023-04-16T00:05:23;8.43;;;5.50;;
13085;SDS011;6609;49.882;8.664;2023-04-16T00:07:51;7.93;;;5.20;;
13085;SDS011;6609;49.882;8.664;2023-04-16T00:10:19;8.93;;;5.67;;
13085;SDS011;6609;49.882;8.664;2023-04-16T00:12:46;8.50;;;5.40;;
13085;SDS011;6609;49.882;8.664;2023-04-16T00:15:13;9.60;;;5.43;;
13085;SDS011;6609;49.882;8.664;2023-04-16T00:17:40;7.87;;;4.70;;
13085;SDS011;6609;49.882;8.664;2023-04-16T00:20:08;8.67;;;5.40;;
13085;SDS011;6609;49.882;8.664;2023-04-16T00:22:35;9.50;;;6.17;;
13085;SDS011;6609;49.882;8.664;2023-04-16T00:25:02;10.07;;;5.80;;
13085;SDS011;6609;49.882;8.664;2023-04-16T00:27:31;9.07;;;5.43;;
13085;SDS011;6609;49.882;8.664;2023-04-16T00:29:57;9.23;;;6.20;;
13085;SDS011;6609;49.882;8.664;2023-04-16T00:32:24;9.67;;;5.73;;
13085;SDS011;6609;49.882;8.664;2023-04-16T00:34:51;11.00;;;5.97;;
13085;SDS011;6609;49.882;8.664;2023-04-16T00:37:18;10.20;;;5.80;;
13085;SDS011;6609;49.882;8.664;2023-04-16T00:39:45;10.90;;;6.07;;
13085;SDS011;6609;49.882;8.664;2023-04-16T00:42:12;9.77;;;6.33;;
13085;SDS011;6609;49.882;8.664;2023-04-16T00:44:41;12.07;;;7.03;;
13085;SDS011;6609;49.882;8.664;2023-04-16T00:47:08;11.73;;;6.50;;
13085;SDS011;6609;49.882;8.664;2023-04-16T00:49:35;9.97;;;6.17;;
13085;SDS011;6609;49.882;8.664;2023-04-16T00:52:02;11.43;;;7.20;;
13085;SDS011;6609;49.882;8.664;2023-04-16T00:54:29;12.33;;;6.87;;
13085;SDS011;6609;49.882;8.664;2023-04-16T00:56:57;10.07;;;6.37;;
13085;SDS011;6609;49.882;8.664;2023-04-16T00:59:25;13.10;;;7.07;;
13085;SDS011;6609;49.882;8.664;2023-04-16T01:01:54;9.57;;;5.97;;
13085;SDS011;6609;49.882;8.664;2023-04-16T01:04:21;11.80;;;6.37;;
13085;SDS011;6609;49.882;8.664;2023-04-16T01:06:48;13.00;;;6.57;;
13085;SDS011;6609;49.882;8.664;2023-04-16T01:09:15;9.47;;;5.87;;
13085;SDS011;6609;49.882;8.664;2023-04-16T01:11:42;10.90;;;6.30;;
13085;SDS011;6609;49.882;8.664;2023-04-16T01:14:10;13.40;;;7.40;;
13085;SDS011;6609;49.882;8.664;2023-04-16T01:16:37;12.43;;;6.60;;
13085;SDS011;6609;49.882;8.664;2023-04-16T01:19:05;11.53;;;6.13;;
13085;SDS011;6609;49.882;8.664;2023-04-16T01:21:33;12.90;;;6.87;;
13085;SDS011;6609;49.882;8.664;2023-04-16T01:24:01;11.57;;;6.23;;
13085;SDS011;6609;49.882;8.664;2023-04-16T01:26:28;10.97;;;6.40;;
13085;SDS011;6609;49.882;8.664;2023-04-16T01:28:55;12.33;;;6.50;;
13085;SDS011;6609;49.882;8.664;2023-04-16T01:31:22;11.07;;;5.80;;
13085;SDS011;6609;49.882;8.664;2023-04-16T01:33:49;10.33;;;6.13;;
13085;SDS011;6609;49.882;8.664;2023-04-16T01:36:16;10.17;;;5.70;;
13085;SDS011;6609;49.882;8.664;2023-04-16T01:38:44;11.03;;;6.03;;
13085;SDS011;6609;49.882;8.664;2023-04-16T01:41:11;9.23;;;5.63;;
13085;SDS011;6609;49.882;8.664;2023-04-16T01:43:38;9.83;;;5.80;;
13085;SDS011;6609;49.882;8.664;2023-04-16T01:46:11;11.07;;;6.30;;
13085;SDS011;6609;49.882;8.664;2023-04-16T01:48:40;13.20;;;6.50;;
13085;SDS011;6609;49.882;8.664;2023-04-16T01:51:07;11.10;;;6.03;;
13085;SDS011;6609;49.882;8.664;2023-04-16T01:53:34;10.40;;;5.63;;
13085;SDS011;6609;49.882;8.664;2023-04-16T01:56:03;12.70;;;6.33;;
13085;SDS011;6609;49.882;8.664;2023-04-16T01:58:31;11.20;;;6.70;;
13085;SDS011;6609;49.882;8.664;2023-04-16T02:00:58;13.70;;;7.13;;
13085;SDS011;6609;49.882;8.664;2023-04-16T02:03:25;10.90;;;6.07;;
13085;SDS011;6609;49.882;8.664;2023-04-16T02:05:52;12.50;;;6.93;;
13085;SDS011;6609;49.882;8.664;2023-04-16T02:08:19;10.77;;;6.20;;
13085;SDS011;6609;49.882;8.664;2023-04-16T02:10:46;10.77;;;5.90;;
13085;SDS011;6609;49.882;8.664;2023-04-16T02:13:15;10.93;;;5.87;;
13085;SDS011;6609;49.882;8.664;2023-04-16T02:15:43;11.40;;;6.53;;
13085;SDS011;6609;49.882;8.664;2023-04-16T02:18:11;10.97;;;5.67;;
13085;SDS011;6609;49.882;8.664;2023-04-16T02:20:38;11.03;;;6.13;;
13085;SDS011;6609;49.882;8.664;2023-04-16T02:23:05;11.40;;;6.50;;
13085;SDS011;6609;49.882;8.664;2023-04-16T02:25:36;13.23;;;6.30;;
13085;SDS011;6609;49.882;8.664;2023-04-16T02:28:04;13.30;;;6.70;;
13085;SDS011;6609;49.882;8.664;2023-04-16T02:30:33;12.77;;;6.37;;
13085;SDS011;6609;49.882;8.664;2023-04-16T02:33:00;9.83;;;6.07;;
13085;SDS011;6609;49.882;8.664;2023-04-16T02:35:29;13.33;;;6.70;;
13085;SDS011;6609;49.882;8.664;2023-04-16T02:37:56;10.17;;;5.87;;
13085;SDS011;6609;49.882;8.664;2023-04-16T02:40:23;11.57;;;6.13;;
13085;SDS011;6609;49.882;8.664;2023-04-16T02:42:50;10.07;;;5.97;;
13085;SDS011;6609;49.882;8.664;2023-04-16T02:45:17;11.40;;;6.63;;
13085;SDS011;6609;49.882;8.664;2023-04-16T02:47:45;12.53;;;6.20;;
13085;SDS011;6609;49.882;8.664;2023-04-16T02:50:12;10.07;;;6.20;;
13085;SDS011;6609;49.882;8.664;2023-04-16T02:52:39;11.13;;;5.83;;
13085;SDS011;6609;49.882;8.664;2023-04-16T02:55:06;12.13;;;6.63;;
13085;SDS011;6609;49.882;8.664;2023-04-16T02:57:34;10.87;;;6.23;;
13085;SDS011;6609;49.882;8.664;2023-04-16T03:00:01;12.53;;;6.70;;
13085;SDS011;6609;49.882;8.664;2023-04-16T03:02:29;10.97;;;6.47;;
13085;SDS011;6609;49.882;8.664;2023-04-16T03:04:57;11.53;;;6.40;;
13085;SDS011;6609;49.882;8.664;2023-04-16T03:07:24;12.50;;;7.10;;
13085;SDS011;6609;49.882;8.664;2023-04-16T03:09:50;12.70;;;6.40;;
13085;SDS011;6609;49.882;8.664;2023-04-16T03:12:17;10.03;;;5.80;;
13085;SDS011;6609;49.882;8.664;2023-04-16T03:14:44;11.17;;;6.30;;
13085;SDS011;6609;49.882;8.664;2023-04-16T03:17:11;12.40;;;6.83;;
13085;SDS011;6609;49.882;8.664;2023-04-16T03:19:38;12.53;;;6.47;;
13085;SDS011;6609;49.882;8.664;2023-04-16T03:22:06;12.93;;;7.30;;
13085;SDS011;6609;49.882;8.664;2023-04-16T03:24:33;15.13;;;8.10;;
13085;SDS011;6609;49.882;8.664;2023-04-16T03:26:59;13.03;;;7.37;;
13085;SDS011;6609;49.882;8.664;2023-04-16T03:29:27;12.47;;;7.97;;
13085;SDS011;6609;49.882;8.664;2023-04-16T03:31:54;14.80;;;7.43;;
13085;SDS011;6609;49.882;8.664;2023-04-16T03:34:21;14.37;;;7.53;;
13085;SDS011;6609;49.882;8.664;2023-04-16T03:36:48;14.20;;;7.57;;
13085;SDS011;6609;49.882;8.664;2023-04-16T03:39:16;12.47;;;7.63;;
13085;SDS011;6609;49.882;8.664;2023-04-16T03:41:43;13.27;;;7.63;;
13085;SDS011;6609;49.882;8.664;2023-04-16T03:44:10;14.30;;;8.30;;
13085;SDS011;6609;49.882;8.664;2023-04-16T03:46:37;14.23;;;8.37;;
13085;SDS011;6609;49.882;8.664;2023-04-16T03:49:04;13.97;;;8.03;;
13085;SDS011;6609;49.882;8.664;2023-04-16T03:51:31;15.50;;;8.23;;
13085;SDS011;6609;49.882;8.664;2023-04-16T03:53:58;15.67;;;8.63;;
13085;SDS011;6609;49.882;8.664;2023-04-16T03:56:26;12.33;;;7.97;;
13085;SDS011;6609;49.882;8.664;2023-04-16T03:58:53;13.00;;;7.87;;
13085;SDS011;6609;49.882;8.664;2023-04-16T04:01:20;13.30;;;8.13;;
13085;SDS011;6609;49.882;8.664;2023-04-16T04:03:46;14.73;;;7.83;;
13085;SDS011;6609;49.882;8.664;2023-04-16T04:06:13;13.70;;;7.73;;
13085;SDS011;6609;49.882;8.664;2023-04-16T04:08:40;14.17;;;7.97;;
13085;SDS011;6609;49.882;8.664;2023-04-16T04:11:07;14.83;;;8.00;;
13085;SDS011;6609;49.882;8.664;2023-04-16T04:13:36;16.60;;;9.23;;
13085;SDS011;6609;49.882;8.664;2023-04-16T04:16:03;14.77;;;8.60;;
13085;SDS011;6609;49.882;8.664;2023-04-16T04:18:30;12.60;;;7.70;;
13085;SDS011;6609;49.882;8.664;2023-04-16T04:20:57;17.30;;;9.40;;
13085;SDS011;6609;49.882;8.664;2023-04-16T04:23:24;14.43;;;7.43;;
13085;SDS011;6609;49.882;8.664;2023-04-16T04:25:51;13.60;;;8.37;;
13085;SDS011;6609;49.882;8.664;2023-04-16T04:28:18;14.43;;;7.80;;
13085;SDS011;6609;49.882;8.664;2023-04-16T04:30:46;13.63;;;8.13;;
13085;SDS011;6609;49.882;8.664;2023-04-16T04:33:13;11.97;;;8.43;;
13085;SDS011;6609;49.882;8.664;2023-04-16T04:35:40;13.03;;;7.90;;
13085;SDS011;6609;49.882;8.664;2023-04-16T04:38:07;16.37;;;8.97;;
13085;SDS011;6609;49.882;8.664;2023-04-16T04:40:34;15.37;;;8.63;;
13085;SDS011;6609;49.882;8.664;2023-04-16T04:43:02;15.73;;;9.07;;
13085;SDS011;6609;49.882;8.664;2023-04-16T04:45:29;14.60;;;8.10;;
13085;SDS011;6609;49.882;8.664;2023-04-16T04:47:57;13.97;;;8.57;;
13085;SDS011;6609;49.882;8.664;2023-04-16T04:50:24;16.73;;;9.17;;
13085;SDS011;6609;49.882;8.664;2023-04-16T04:52:51;14.97;;;8.90;;
13085;SDS011;6609;49.882;8.664;2023-04-16T04:55:18;13.67;;;7.87;;
13085;SDS011;6609;49.882;8.664;2023-04-16T04:57:45;16.07;;;9.30;;
13085;SDS011;6609;49.882;8.664;2023-04-16T05:00:12;14.90;;;9.03;;
13085;SDS011;6609;49.882;8.664;2023-04-16T05:02:39;13.17;;;8.47;;
13085;SDS011;6609;49.882;8.664;2023-04-16T05:05:08;14.10;;;8.63;;
13085;SDS011;6609;49.882;8.664;2023-04-16T05:07:35;16.97;;;9.60;;
13085;SDS011;6609;49.882;8.664;2023-04-16T05:10:02;16.93;;;9.47;;
13085;SDS011;6609;49.882;8.664;2023-04-16T05:12:29;16.03;;;8.20;;
13085;SDS011;6609;49.882;8.664;2023-04-16T05:14:56;14.37;;;8.37;;
13085;SDS011;6609;49.882;8.664;2023-04-16T05:17:23;16.07;;;9.23;;
13085;SDS011;6609;49.882;8.664;2023-04-16T05:19:51;16.13;;;9.30;;
13085;SDS011;6609;49.882;8.664;2023-04-16T05:22:19;15.27;;;8.77;;
13085;SDS011;6609;49.882;8.664;2023-04-16T05:24:46;16.40;;;9.37;;
13085;SDS011;6609;49.882;8.664;2023-04-16T05:27:13;15.83;;;8.97;;
13085;SDS011;6609;49.882;8.664;2023-04-16T05:29:39;14.57;;;8.33;;
13085;SDS011;6609;49.882;8.664;2023-04-16T05:32:06;15.90;;;9.40;;
13085;SDS011;6609;49.882;8.664;2023-04-16T05:34:33;13.20;;;8.20;;
13085;SDS011;6609;49.882;8.664;2023-04-16T05:37:00;17.40;;;10.13;;
13085;SDS011;6609;49.882;8.664;2023-04-16T05:39:29;16.20;;;9.13;;
13085;SDS011;6609;49.882;8.664;2023-04-16T05:41:55;15.87;;;8.93;;
13085;SDS011;6609;49.882;8.664;2023-04-16T05:44:22;15.27;;;8.50;;
13085;SDS011;6609;49.882;8.664;2023-04-16T05:46:49;15.10;;;8.60;;
13085;SDS011;6609;49.882;8.664;2023-04-16T05:49:16;15.07;;;9.47;;
13085;SDS011;6609;49.882;8.664;2023-04-16T05:51:43;13.60;;;8.10;;
13085;SDS011;6609;49.882;8.664;2023-04-16T05:54:11;14.43;;;8.30;;
13085;SDS011;6609;49.882;8.664;2023-04-16T05:56:39;16.23;;;7.93;;
13085;SDS011;6609;49.882;8.664;2023-04-16T05:59:06;15.30;;;9.10;;
13085;SDS011;6609;49.882;8.664;2023-04-16T06:01:33;13.63;;;8.53;;
13085;SDS011;6609;49.882;8.664;2023-04-16T06:04:00;13.90;;;8.57;;
13085;SDS011;6609;49.882;8.664;2023-04-16T06:06:27;13.33;;;8.27;;
13085;SDS011;6609;49.882;8.664;2023-04-16T06:08:54;16.03;;;8.93;;
13085;SDS011;6609;49.882;8.664;2023-04-16T06:11:20;13.97;;;8.40;;
13085;SDS011;6609;49.882;8.664;2023-04-16T06:13:49;14.60;;;8.90;;
13085;SDS011;6609;49.882;8.664;2023-04-16T06:16:15;14.60;;;8.90;;
13085;SDS011;6609;49.882;8.664;2023-04-16T06:18:42;16.57;;;8.97;;
13085;SDS011;6609;49.882;8.664;2023-04-16T06:21:09;12.30;;;8.50;;
13085;SDS011;6609;49.882;8.664;2023-04-16T06:23:36;12.33;;;7.80;;
13085;SDS011;6609;49.882;8.664;2023-04-16T06:26:04;15.63;;;8.40;;
13085;SDS011;6609;49.882;8.664;2023-04-16T06:28:30;14.80;;;8.97;;
13085;SDS011;6609;49.882;8.664;2023-04-16T06:30:59;14.13;;;7.97;;
13085;SDS011;6609;49.882;8.664;2023-04-16T06:33:26;14.50;;;8.90;;
13085;SDS011;6609;49.882;8.664;2023-04-16T06:35:53;15.73;;;8.90;;
13085;SDS011;6609;49.882;8.664;2023-04-16T06:38:20;15.83;;;8.40;;
13085;SDS011;6609;49.882;8.664;2023-04-16T06:40:47;15.77;;;9.17;;
13085;SDS011;6609;49.882;8.664;2023-04-16T06:43:14;13.67;;;8.30;;
13085;SDS011;6609;49.882;8.664;2023-04-16T06:45:41;14.90;;;8.80;;
13085;SDS011;6609;49.882;8.664;2023-04-16T06:48:10;14.27;;;8.47;;
13085;SDS011;6609;49.882;8.664;2023-04-16T06:50:37;18.00;;;9.23;;
13085;SDS011;6609;49.882;8.664;2023-04-16T06:53:04;15.57;;;9.57;;
13085;SDS011;6609;49.882;8.664;2023-04-16T06:55:31;18.87;;;10.40;;
13085;SDS011;6609;49.882;8.664;2023-04-16T06:57:58;16.87;;;10.47;;
13085;SDS011;6609;49.882;8.664;2023-04-16T07:00:25;14.13;;;9.47;;
13085;SDS011;6609;49.882;8.664;2023-04-16T07:02:52;17.60;;;10.57;;
13085;SDS011;6609;49.882;8.664;2023-04-16T07:05:20;12.20;;;8.77;;
13085;SDS011;6609;49.882;8.664;2023-04-16T07:07:47;16.47;;;9.90;;
13085;SDS011;6609;49.882;8.664;2023-04-16T07:10:14;20.07;;;10.77;;
13085;SDS011;6609;49.882;8.664;2023-04-16T07:12:41;14.17;;;9.03;;
13085;SDS011;6609;49.882;8.664;2023-04-16T07:15:09;16.23;;;9.23;;
13085;SDS011;6609;49.882;8.664;2023-04-16T07:17:36;15.80;;;9.37;;
13085;SDS011;6609;49.882;8.664;2023-04-16T07:20:03;18.80;;;10.63;;
13085;SDS011;6609;49.882;8.664;2023-04-16T07:22:32;16.63;;;9.90;;
13085;SDS011;6609;49.882;8.664;2023-04-16T07:24:59;19.57;;;10.00;;
13085;SDS011;6609;49.882;8.664;2023-04-16T07:27:26;14.93;;;9.43;;
13085;SDS011;6609;49.882;8.664;2023-04-16T07:29:53;16.90;;;10.73;;
13085;SDS011;6609;49.882;8.664;2023-04-16T07:32:20;17.10;;;9.60;;
13085;SDS011;6609;49.882;8.664;2023-04-16T07:34:47;20.10;;;11.13;;
13085;SDS011;6609;49.882;8.664;2023-04-16T07:37:14;17.67;;;10.67;;
13085;SDS011;6609;49.882;8.664;2023-04-16T07:39:43;21.23;;;11.10;;
13085;SDS011;6609;49.882;8.664;2023-04-16T07:42:09;17.47;;;10.13;;
13085;SDS011;6609;49.882;8.664;2023-04-16T07:44:36;16.43;;;10.23;;
13085;SDS011;6609;49.882;8.664;2023-04-16T07:47:03;18.23;;;9.93;;
13085;SDS011;6609;49.882;8.664;2023-04-16T07:49:30;15.87;;;9.27;;
13085;SDS011;6609;49.882;8.664;2023-04-16T07:51:57;18.30;;;10.80;;
13085;SDS011;6609;49.882;8.664;2023-04-16T07:54:24;18.30;;;10.57;;
13085;SDS011;6609;49.882;8.664;2023-04-16T07:56:52;17.43;;;11.20;;
13085;SDS011;6609;49.882;8.664;2023-04-16T07:59:19;16.97;;;11.17;;
13085;SDS011;6609;49.882;8.664;2023-04-16T08:01:46;23.50;;;12.20;;
13085;SDS011;6609;49.882;8.664;2023-04-16T08:04:13;19.37;;;10.43;;
13085;SDS011;6609;49.882;8.664;2023-04-16T08:06:46;19.77;;;9.83;;
13085;SDS011;6609;49.882;8.664;2023-04-16T08:09:13;17.43;;;10.60;;
13085;SDS011;6609;49.882;8.664;2023-04-16T08:11:40;18.53;;;9.90;;
13085;SDS011;6609;49.882;8.664;2023-04-16T08:14:08;19.07;;;10.57;;
13085;SDS011;6609;49.882;8.664;2023-04-16T08:16:35;15.40;;;9.53;;
13085;SDS011;6609;49.882;8.664;2023-04-16T08:19:02;17.77;;;10.67;;
13085;SDS011;6609;49.882;8.664;2023-04-16T08:21:29;17.90;;;9.40;;
13085;SDS011;6609;49.882;8.664;2023-04-16T08:23:56;16.70;;;9.70;;
13085;SDS011;6609;49.882;8.664;2023-04-16T08:26:23;17.13;;;9.87;;
13085;SDS011;6609;49.882;8.664;2023-04-16T08:28:51;16.03;;;9.13;;
13085;SDS011;6609;49.882;8.664;2023-04-16T08:31:19;15.30;;;9.27;;
13085;SDS011;6609;49.882;8.664;2023-04-16T08:33:46;15.80;;;9.80;;
13085;SDS011;6609;49.882;8.664;2023-04-16T08:36:13;17.07;;;9.30;;
13085;SDS011;6609;49.882;8.664;2023-04-16T08:38:40;15.40;;;9.63;;
13085;SDS011;6609;49.882;8.664;2023-04-16T08:41:08;15.00;;;8.23;;
13085;SDS011;6609;49.882;8.664;2023-04-16T08:43:38;16.10;;;9.10;;
13085;SDS011;6609;49.882;8.664;2023-04-16T08:46:09;14.77;;;8.20;;
13085;SDS011;6609;49.882;8.664;2023-04-16T08:48:38;15.73;;;8.50;;
13085;SDS011;6609;49.882;8.664;2023-04-16T08:51:08;14.90;;;8.00;;
13085;SDS011;6609;49.882;8.664;2023-04-16T08:53:42;13.03;;;7.90;;
13085;SDS011;6609;49.882;8.664;2023-04-16T08:56:13;14.27;;;8.20;;
13085;SDS011;6609;49.882;8.664;2023-04-16T08:58:41;16.47;;;8.57;;
13085;SDS011;6609;49.882;8.664;2023-04-16T09:01:08;13.30;;;7.90;;
13085;SDS011;6609;49.882;8.664;2023-04-16T09:03:35;15.83;;;9.67;;
13085;SDS011;6609;49.882;8.664;2023-04-16T09:06:04;18.87;;;9.27;;
13085;SDS011;6609;49.882;8.664;2023-04-16T09:08:32;12.00;;;7.67;;
13085;SDS011;6609;49.882;8.664;2023-04-16T09:11:02;15.03;;;8.47;;
13085;SDS011;6609;49.882;8.664;2023-04-16T09:13:29;13.03;;;8.60;;
13085;SDS011;6609;49.882;8.664;2023-04-16T09:15:57;15.90;;;9.17;;
13085;SDS011;6609;49.882;8.664;2023-04-16T09:18:24;15.30;;;8.93;;
13085;SDS011;6609;49.882;8.664;2023-04-16T09:20:52;15.37;;;9.03;;
13085;SDS011;6609;49.882;8.664;2023-04-16T09:23:21;16.43;;;9.57;;
13085;SDS011;6609;49.882;8.664;2023-04-16T09:25:49;14.97;;;7.77;;
13085;SDS011;6609;49.882;8.664;2023-04-16T09:31:07;16.50;;;9.60;;
13085;SDS011;6609;49.882;8.664;2023-04-16T09:33:34;15.47;;;9.57;;
13085;SDS011;6609;49.882;8.664;2023-04-16T09:36:01;15.23;;;8.83;;
13085;SDS011;6609;49.882;8.664;2023-04-16T09:41:12;12.87;;;8.07;;
13085;SDS011;6609;49.882;8.664;2023-04-16T09:43:41;16.13;;;9.03;;
13085;SDS011;6609;49.882;8.664;2023-04-16T09:46:09;21.27;;;10.90;;
13085;SDS011;6609;49.882;8.664;2023-04-16T09:48:36;16.57;;;10.73;;
13085;SDS011;6609;49.882;8.664;2023-04-16T09:51:04;16.73;;;10.27;;
13085;SDS011;6609;49.882;8.664;2023-04-16T09:53:31;16.60;;;10.00;;
13085;SDS011;6609;49.882;8.664;2023-04-16T09:56:00;17.10;;;9.60;;
13085;SDS011;6609;49.882;8.664;2023-04-16T09:58:28;13.70;;;8.83;;
13085;SDS011;6609;49.882;8.664;2023-04-16T10:00:55;16.37;;;9.70;;
13085;SDS011;6609;49.882;8.664;2023-04-16T10:03:27;14.63;;;9.67;;
13085;SDS011;6609;49.882;8.664;2023-04-16T10:05:55;17.87;;;10.27;;
13085;SDS011;6609;49.882;8.664;2023-04-16T10:08:25;16.37;;;9.57;;
13085;SDS011;6609;49.882;8.664;2023-04-16T10:10:52;19.30;;;10.43;;
13085;SDS011;6609;49.882;8.664;2023-04-16T10:13:21;17.27;;;9.27;;
13085;SDS011;6609;49.882;8.664;2023-04-16T10:15:49;18.77;;;10.63;;
13085;SDS011;6609;49.882;8.664;2023-04-16T10:18:16;18.47;;;10.63;;
13085;SDS011;6609;49.882;8.664;2023-04-16T10:20:44;17.30;;;9.83;;
13085;SDS011;6609;49.882;8.664;2023-04-16T10:23:11;16.20;;;10.27;;
13085;SDS011;6609;49.882;8.664;2023-04-16T10:25:38;16.33;;;10.23;;
13085;SDS011;6609;49.882;8.664;2023-04-16T10:28:06;16.57;;;9.70;;
13085;SDS011;6609;49.882;8.664;2023-04-16T10:30:35;16.57;;;8.77;;
13085;SDS011;6609;49.882;8.664;2023-04-16T10:33:03;16.37;;;9.37;;
13085;SDS011;6609;49.882;8.664;2023-04-16T10:35:30;14.50;;;9.00;;
13085;SDS011;6609;49.882;8.664;2023-04-16T10:38:02;17.83;;;10.43;;
13085;SDS011;6609;49.882;8.664;2023-04-16T10:40:47;14.97;;;9.73;;
13085;SDS011;6609;49.882;8.664;2023-04-16T10:43:16;17.17;;;9.60;;
13085;SDS011;6609;49.882;8.664;2023-04-16T10:45:46;16.40;;;10.60;;
13085;SDS011;6609;49.882;8.664;2023-04-16T10:48:13;16.43;;;9.87;;
13085;SDS011;6609;49.882;8.664;2023-04-16T10:50:52;16.63;;;9.63;;
13085;SDS011;6609;49.882;8.664;2023-04-16T10:53:22;14.13;;;8.63;;
13085;SDS011;6609;49.882;8.664;2023-04-16T10:58:37;17.73;;;9.67;;
13085;SDS011;6609;49.882;8.664;2023-04-16T11:01:12;15.67;;;9.73;;
13085;SDS011;6609;49.882;8.664;2023-04-16T11:03:41;17.60;;;9.50;;
13085;SDS011;6609;49.882;8.664;2023-04-16T11:06:09;20.57;;;10.90;;
13085;SDS011;6609;49.882;8.664;2023-04-16T11:08:40;16.27;;;10.23;;
13085;SDS011;6609;49.882;8.664;2023-04-16T11:11:09;20.13;;;11.63;;
13085;SDS011;6609;49.882;8.664;2023-04-16T11:13:36;15.93;;;9.53;;
13085;SDS011;6609;49.882;8.664;2023-04-16T11:16:04;19.70;;;10.40;;
13085;SDS011;6609;49.882;8.664;2023-04-16T11:18:33;17.30;;;10.10;;
13085;SDS011;6609;49.882;8.664;2023-04-16T11:21:00;17.57;;;10.27;;
13085;SDS011;6609;49.882;8.664;2023-04-16T11:23:27;15.50;;;9.87;;
13085;SDS011;6609;49.882;8.664;2023-04-16T11:25:54;17.57;;;10.00;;
13085;SDS011;6609;49.882;8.664;2023-04-16T11:28:32;15.77;;;9.87;;
13085;SDS011;6609;49.882;8.664;2023-04-16T11:31:07;18.13;;;11.60;;
13085;SDS011;6609;49.882;8.664;2023-04-16T11:33:38;17.47;;;10.77;;
13085;SDS011;6609;49.882;8.664;2023-04-16T11:36:05;16.80;;;10.83;;
13085;SDS011;6609;49.882;8.664;2023-04-16T11:38:33;18.20;;;10.77;;
13085;SDS011;6609;49.882;8.664;2023-04-16T11:41:01;18.80;;;11.60;;
13085;SDS011;6609;49.882;8.664;2023-04-16T11:43:28;16.60;;;10.30;;
13085;SDS011;6609;49.882;8.664;2023-04-16T11:45:56;16.90;;;11.27;;
13085;SDS011;6609;49.882;8.664;2023-04-16T11:48:24;15.20;;;10.07;;
13085;SDS011;6609;49.882;8.664;2023-04-16T11:50:56;17.60;;;10.47;;
13085;SDS011;6609;49.882;8.664;2023-04-16T11:53:23;19.20;;;10.87;;
13085;SDS011;6609;49.882;8.664;2023-04-16T11:55:51;17.53;;;10.93;;
13085;SDS011;6609;49.882;8.664;2023-04-16T11:58:17;17.97;;;10.97;;
13085;SDS011;6609;49.882;8.664;2023-04-16T12:00:46;18.73;;;11.87;;
13085;SDS011;6609;49.882;8.664;2023-04-16T12:03:17;18.67;;;11.57;;
13085;SDS011;6609;49.882;8.664;2023-04-16T12:05:44;21.27;;;12.93;;
13085;SDS011;6609;49.882;8.664;2023-04-16T12:08:18;22.97;;;14.53;;
13085;SDS011;6609;49.882;8.664;2023-04-16T12:10:54;25.37;;;14.13;;
13085;SDS011;6609;49.882;8.664;2023-04-16T12:13:23;26.40;;;14.60;;
13085;SDS011;6609;49.882;8.664;2023-04-16T12:15:51;21.33;;;13.13;;
13085;SDS011;6609;49.882;8.664;2023-04-16T12:18:18;23.30;;;13.80;;
13085;SDS011;6609;49.882;8.664;2023-04-16T12:20:46;19.07;;;11.37;;
13085;SDS011;6609;49.882;8.664;2023-04-16T12:23:22;19.50;;;11.73;;
13085;SDS011;6609;49.882;8.664;2023-04-16T12:25:51;20.03;;;11.50;;
13085;SDS011;6609;49.882;8.664;2023-04-16T12:28:28;19.47;;;11.57;;
13085;SDS011;6609;49.882;8.664;2023-04-16T12:30:56;18.50;;;12.23;;
13085;SDS011;6609;49.882;8.664;2023-04-16T12:33:22;18.07;;;10.73;;
13085;SDS011;6609;49.882;8.664;2023-04-16T12:35:49;21.73;;;12.30;;
13085;SDS011;6609;49.882;8.664;2023-04-16T12:38:17;18.87;;;12.60;;
13085;SDS011;6609;49.882;8.664;2023-04-16T12:40:46;19.17;;;10.90;;
13085;SDS011;6609;49.882;8.664;2023-04-16T12:43:13;16.37;;;10.10;;
13085;SDS011;6609;49.882;8.664;2023-04-16T12:45:40;15.60;;;10.17;;
13085;SDS011;6609;49.882;8.664;2023-04-16T12:48:07;17.67;;;10.77;;
13085;SDS011;6609;49.882;8.664;2023-04-16T12:50:34;19.97;;;10.37;;
13085;SDS011;6609;49.882;8.664;2023-04-16T12:53:03;16.97;;;10.83;;
13085;SDS011;6609;49.882;8.664;2023-04-16T12:55:30;19.27;;;11.20;;
13085;SDS011;6609;49.882;8.664;2023-04-16T12:57:58;17.87;;;11.03;;
13085;SDS011;6609;49.882;8.664;2023-04-16T13:00:26;16.97;;;10.70;;
13085;SDS011;6609;49.882;8.664;2023-04-16T13:02:53;14.47;;;10.23;;
13085;SDS011;6609;49.882;8.664;2023-04-16T13:05:20;17.90;;;10.93;;
13085;SDS011;6609;49.882;8.664;2023-04-16T13:07:47;18.10;;;11.33;;
13085;SDS011;6609;49.882;8.664;2023-04-16T13:10:14;17.13;;;10.97;;
13085;SDS011;6609;49.882;8.664;2023-04-16T13:12:41;18.07;;;11.60;;
13085;SDS011;6609;49.882;8.664;2023-04-16T13:15:10;17.20;;;10.80;;
13085;SDS011;6609;49.882;8.664;2023-04-16T13:17:37;22.53;;;11.23;;
13085;SDS011;6609;49.882;8.664;2023-04-16T13:20:04;20.13;;;11.87;;
13085;SDS011;6609;49.882;8.664;2023-04-16T13:22:31;15.23;;;10.07;;
13085;SDS011;6609;49.882;8.664;2023-04-16T13:24:59;20.63;;;11.57;;
13085;SDS011;6609;49.882;8.664;2023-04-16T13:27:26;18.43;;;12.37;;
13085;SDS011;6609;49.882;8.664;2023-04-16T13:29:54;17.47;;;11.00;;
13085;SDS011;6609;49.882;8.664;2023-04-16T13:32:22;17.13;;;10.30;;
13085;SDS011;6609;49.882;8.664;2023-04-16T13:34:49;16.73;;;10.23;;
13085;SDS011;6609;49.882;8.664;2023-04-16T13:37:16;18.57;;;11.27;;
13085;SDS011;6609;49.882;8.664;2023-04-16T13:39:43;19.93;;;12.77;;
13085;SDS011;6609;49.882;8.664;2023-04-16T13:42:11;19.23;;;11.57;;
13085;SDS011;6609;49.882;8.664;2023-04-16T13:44:38;19.53;;;12.67;;
13085;SDS011;6609;49.882;8.664;2023-04-16T13:47:05;21.03;;;13.43;;
13085;SDS011;6609;49.882;8.664;2023-04-16T13:49:33;21.10;;;13.10;;
13085;SDS011;6609;49.882;8.664;2023-04-16T13:52:00;20.83;;;12.97;;
13085;SDS011;6609;49.882;8.664;2023-04-16T13:54:27;20.47;;;13.10;;
13085;SDS011;6609;49.882;8.664;2023-04-16T13:56:54;18.10;;;12.70;;
13085;SDS011;6609;49.882;8.664;2023-04-16T13:59:21;15.83;;;12.30;;
13085;SDS011;6609;49.882;8.664;2023-04-16T14:01:48;18.70;;;12.83;;
13085;SDS011;6609;49.882;8.664;2023-04-16T14:04:15;20.03;;;13.67;;
13085;SDS011;6609;49.882;8.664;2023-04-16T14:06:43;19.33;;;12.90;;
13085;SDS011;6609;49.882;8.664;2023-04-16T14:09:10;21.07;;;12.90;;
13085;SDS011;6609;49.882;8.664;2023-04-16T14:11:37;21.00;;;13.30;;
13085;SDS011;6609;49.882;8.664;2023-04-16T14:14:05;20.83;;;13.13;;
13085;SDS011;6609;49.882;8.664;2023-04-16T14:16:32;22.97;;;13.70;;
13085;SDS011;6609;49.882;8.664;2023-04-16T14:18:59;20.23;;;13.57;;
13085;SDS011;6609;49.882;8.664;2023-04-16T14:21:26;24.13;;;13.83;;
13085;SDS011;6609;49.882;8.664;2023-04-16T14:23:54;21.57;;;13.17;;
13085;SDS011;6609;49.882;8.664;2023-04-16T14:26:21;19.50;;;13.40;;
13085;SDS011;6609;49.882;8.664;2023-04-16T14:28:49;21.23;;;14.33;;
13085;SDS011;6609;49.882;8.664;2023-04-16T14:31:16;20.17;;;13.37;;
13085;SDS011;6609;49.882;8.664;2023-04-16T14:33:44;20.70;;;13.33;;
13085;SDS011;6609;49.882;8.664;2023-04-16T14:36:11;20.97;;;14.17;;
13085;SDS011;6609;49.882;8.664;2023-04-16T14:38:38;19.63;;;13.23;;
13085;SDS011;6609;49.882;8.664;2023-04-16T14:41:06;21.63;;;12.77;;
13085;SDS011;6609;49.882;8.664;2023-04-16T14:43:32;23.63;;;14.73;;
13085;SDS011;6609;49.882;8.664;2023-04-16T14:45:59;23.67;;;13.60;;
13085;SDS011;6609;49.882;8.664;2023-04-16T14:48:27;19.60;;;13.17;;
13085;SDS011;6609;49.882;8.664;2023-04-16T14:50:55;20.33;;;12.00;;
13085;SDS011;6609;49.882;8.664;2023-04-16T14:53:22;20.83;;;13.37;;